• Join FlightAware (Why Join?)
  • Login
  • US Flag 
05:53PM EDT


 

Airport Tracker/Info


-or-


 

Live Flight TrackerFlight Track Log ✈ UAL4596 ✈ 17-Apr-2013 ✈ KEWR - KSTL

Flight Track Log - Related Links

Times and Time Zones

All times are in EDT time to prevent confusion due to time zone crossing. See the UAL4596 flight status page for this flight to view local times or setup timezone preferences in your user account.

Time Position Orientation Groundspeed Altitude Reporting Facility
EDT Latitude Longitude Course Direction KTS MPH feet Rate Location/Type
03:18PM 40.7167 -74.1500 294° West 172 198 5,500  Level New York TRACON
03:19PM 40.7500 -74.1000 49° Northeast 216 249 3,100 -900 Descending New York TRACON
03:20PM 40.8167 -74.1333 339° North 247 284 3,800 1,140 Climbing New York TRACON
03:21PM 40.7474 -74.6709 277° West  Level FlightAware Approximate
03:21PM 40.8500 -74.2167 298° West 255 293 5,500  Level New York TRACON
03:22PM 40.7579 -74.8018 276° West  Level FlightAware Approximate
03:22PM 40.8333 -74.3000 255° West 242 278 8,000  Level New York TRACON
03:23PM 40.7716 -74.9316 294° West  Level FlightAware Approximate
03:23PM 40.8333 -74.3833 270° West 254 292 10,300  Level New York TRACON
03:24PM 40.8333 -74.4833 270° West 270 311 11,800 1,140 Climbing New York TRACON
03:25PM 40.8258 -74.6267 266° West 304 350 13,000 1,080 Climbing New York Center
03:26PM 40.8197 -74.7442 266° West 320 368 14,400 1,260 Climbing New York Center
03:27PM 40.8156 -74.8675 267° West 331 381 15,600 1,380 Climbing New York Center
03:28PM 40.8092 -74.9903 266° West 331 381 17,200 1,140 Climbing New York Center
03:29PM 40.8047 -75.1136 267° West 336 387 17,900 780 Climbing New York Center
03:30PM 40.7875 -75.2383 260° West 349 402 18,800 900 Climbing New York Center
03:31PM 40.7683 -75.3578 258° West 354 407 19,800 1,140 Climbing New York Center
03:32PM 40.7253 -75.4972 248° West 364 419 21,200 1,200 Climbing New York Center
03:33PM 40.6767 -75.6200 242° Southwest 369 425 22,200 960 Climbing New York Center
03:34PM 40.6339 -75.7453 246° West 379 436 23,200 1,380 Climbing New York Center
03:35PM 40.5850 -75.8675 242° Southwest 379 436 25,000 1,440 Climbing New York Center
03:36PM 40.5406 -75.9761 242° Southwest 379 436 26,100 1,080 Climbing New York Center
03:37PM 40.4958 -76.0931 243° Southwest 379 436 27,200 960 Climbing New York Center
03:38PM 40.4506 -76.2150 244° Southwest 379 436 28,100 900 Climbing New York Center
03:39PM 40.4156 -76.3403 250° West 373 429 29,100 960 Climbing New York Center
03:40PM 40.3847 -76.4633 252° West 363 418 30,100 960 Climbing New York Center
03:41PM 40.3497 -76.5856 249° West 363 418 31,100 960 Climbing New York Center
03:42PM 40.3164 -76.7108 251° West 363 418 32,100 1,020 Climbing New York Center
03:43PM 40.2828 -76.8358 251° West 363 418 33,100 960 Climbing New York Center
03:44PM 40.2472 -76.9606 250° West 363 418 34,100 960 Climbing New York Center
03:45PM 40.2156 -77.0828 251° West 363 418 35,100 840 Climbing New York Center
03:46PM 40.2006 -77.2092 261° West 358 412 35,900 180 Climbing New York Center
03:50PM 40.1811 -77.7133 267° West 355 409 36,000  Climbing Cleveland Center
03:51PM 40.1781 -77.8467 268° West 355 409 36,000  Level Cleveland Center
03:52PM 40.1792 -77.9744 271° West 361 415 36,000  Level Cleveland Center
03:53PM 40.1778 -78.1075 269° West 366 421 36,000  Level Cleveland Center
03:54PM 40.1764 -78.2381 269° West 366 421 36,000  Level Cleveland Center
03:55PM 40.1769 -78.3711 270° West 366 421 36,000  Level Cleveland Center
03:56PM 40.1753 -78.5044 269° West 366 421 36,000  Level Cleveland Center
03:57PM 40.1714 -78.6350 268° West 366 421 36,000  Level Cleveland Center
03:58PM 40.1694 -78.7681 269° West 366 421 36,000  Level Cleveland Center
03:59PM 40.1694 -78.9014 270° West 366 421 36,000  Level Cleveland Center
04:00PM 40.1672 -79.0344 269° West 366 421 36,000  Level Cleveland Center
04:01PM 40.1647 -79.1731 269° West 366 421 36,000  Level Cleveland Center
04:02PM 40.1622 -79.3064 269° West 366 421 36,000  Level Cleveland Center
04:03PM 40.1617 -79.4447 270° West 366 421 36,000  Level Cleveland Center
04:04PM 40.1586 -79.5808 268° West 371 427 36,000  Level Cleveland Center
04:05PM 40.1556 -79.7167 268° West 376 433 36,000  Level Cleveland Center
04:06PM 40.1544 -79.8525 269° West 381 438 36,000  Level Cleveland Center
04:07PM 40.1489 -79.9908 267° West 381 438 36,000  Level Cleveland Center
04:08PM 40.1475 -80.1294 269° West 381 438 36,000  Level Cleveland Center
04:09PM 40.1397 -80.2681 266° West 381 438 36,000  Level Cleveland Center
04:10PM 40.1378 -80.3931 269° West 383 441 36,000  Level Cleveland Center
04:11PM 40.1339 -80.5314 268° West 383 441 36,000  Level Cleveland Center
04:12PM 40.1317 -80.6728 269° West 383 441 36,000  Level Cleveland Center
04:13PM 40.1275 -80.8139 268° West 383 441 36,000  Level Cleveland Center
04:15PM 40.1131 -81.1547 267° West 389 448 36,000  Level Indianapolis Center
04:17PM 40.1078 -81.2992 267° West 393 452 36,000  Level Indianapolis Center
04:18PM 40.1028 -81.4442 267° West 395 455 36,000  Level Indianapolis Center
04:19PM 40.0972 -81.5889 267° West 397 457 36,000  Level Indianapolis Center
04:20PM 40.0914 -81.7353 267° West 400 460 36,000 -60 Level Indianapolis Center
04:21PM 40.0850 -81.8978 267° West 404 465 35,900  Descending Indianapolis Center
04:22PM 40.0789 -82.0431 267° West 399 459 36,000  Climbing Indianapolis Center
04:23PM 40.0722 -82.1919 267° West 406 467 35,900 -60 Descending Indianapolis Center
04:24PM 40.0661 -82.3406 267° West 408 470 35,900  Level Indianapolis Center
04:25PM 40.0597 -82.4892 267° West 409 471 35,900  Level Indianapolis Center
04:26PM 40.0517 -82.6369 266° West 406 467 36,000  Climbing Indianapolis Center
04:27PM 40.0461 -82.7817 267° West 399 459 35,900 -60 Descending Indianapolis Center
04:28PM 40.0378 -82.9467 266° West 389 448 35,900  Level Indianapolis Center
04:29PM 40.0306 -83.0872 266° West 385 443 35,900  Level Indianapolis Center
04:30PM 40.0231 -83.2294 266° West 391 450 35,900  Level Indianapolis Center
04:31PM 40.0158 -83.3747 266° West 400 460 35,900  Level Indianapolis Center
04:32PM 40.0078 -83.5192 266° West 402 463 35,900  Level Indianapolis Center
04:33PM 39.9975 -83.6869 265° West 399 459 35,900  Level Indianapolis Center
04:34PM 39.9897 -83.8319 266° West 401 461 35,900  Level Indianapolis Center
04:35PM 39.9811 -83.9778 266° West 402 463 35,900  Level Indianapolis Center
04:36PM 39.9717 -84.1244 265° West 403 464 35,900  Level Indianapolis Center
04:37PM 39.9631 -84.2708 266° West 403 464 35,900  Level Indianapolis Center
04:38PM 39.9539 -84.4144 265° West 398 458 36,000  Climbing Indianapolis Center
04:39PM 39.9447 -84.5569 265° West 393 452 35,900 -60 Descending Indianapolis Center
04:40PM 39.9344 -84.7217 265° West 388 447 35,900  Level Indianapolis Center
04:41PM 39.9236 -84.8611 264° West 384 442 35,900  Level Indianapolis Center
04:42PM 39.9128 -84.9994 264° West 382 440 35,900  Level Indianapolis Center
04:43PM 39.8914 -85.1369 259° West 382 440 35,900  Level Indianapolis Center
04:44PM 39.8692 -85.2719 258° West 378 435 35,900  Level Indianapolis Center
04:45PM 39.8492 -85.3964 258° West 353 406 35,900 -720 Level Indianapolis Center
04:46PM 39.8294 -85.5264 259° West 362 417 34,500 -1,020 Descending Indianapolis Center
04:47PM 39.8025 -85.6856 258° West 380 437 33,900 -300 Descending Indianapolis Center
04:49PM 39.7814 -85.8200 258° West 379 436 33,900  Level Indianapolis Center
04:50PM 39.7608 -85.9383 257° West 375 432 34,000  Climbing Indianapolis Center
04:51PM 39.7397 -86.0686 258° West 371 427 34,000  Level Indianapolis Center
04:52PM 39.7136 -86.2269 258° West 373 429 34,000  Level Indianapolis Center
04:53PM 39.6908 -86.3608 258° West 377 434 34,000  Level Indianapolis Center
04:54PM 39.6661 -86.5014 257° West 393 452 34,000  Level Indianapolis Center
04:55PM 39.6411 -86.6458 257° West 408 470 34,000 -60 Level Indianapolis Center
04:56PM 39.6158 -86.7922 257° West 415 478 33,900 -960 Descending Indianapolis Center
04:57PM 39.5917 -86.9339 258° West 405 466 32,100 -1,860 Descending Indianapolis Center
04:58PM 39.5669 -87.0739 257° West 401 461 30,100 -1,020 Descending Indianapolis Center
04:59PM 39.5381 -87.2325 257° West 377 434 30,000 -840 Descending Indianapolis Center
05:00PM 39.5153 -87.3603 257° West 366 421 28,500 -1,020 Descending Indianapolis Center
05:01PM 39.4931 -87.4850 257° West 359 413 28,000 -300 Descending Indianapolis Center
05:02PM 39.4708 -87.6103 257° West 357 411 28,000  Level Indianapolis Center
05:03PM 39.4469 -87.7372 256° West 362 417 28,000  Level Indianapolis Center
05:04PM 39.4242 -87.8650 257° West 364 419 28,000  Level Indianapolis Center
05:05PM 39.4014 -87.9942 257° West 367 422 28,000 -300 Level Indianapolis Center
05:06PM 39.3656 -88.1461 253° West 367 422 27,500 -600 Descending Indianapolis Center
05:07PM 39.3364 -88.2519 250° West 374 430 26,900 -900 Descending Kansas City Center
05:08PM 39.2969 -88.4053 252° West 375 432 25,700 -1,080 Descending Kansas City Center
05:09PM 39.2617 -88.5369 251° West 383 441 24,700 -960 Descending Kansas City Center
05:10PM 39.2250 -88.6706 251° West 387 445 23,800 -720 Descending Kansas City Center
05:11PM 39.1914 -88.8017 252° West 388 447 23,300 -1,140 Descending Kansas City Center
05:12PM 39.1589 -88.9178 250° West 352 405 21,500 -1,800 Descending Kansas City Center
05:13PM 39.1272 -89.0350 251° West 316 364 19,600 -1,620 Descending Kansas City Center
05:14PM 39.0981 -89.1419 251° West 317 365 18,200 -1,620 Descending Kansas City Center
05:15PM 39.0800 -89.1758 236° Southwest 324 373 16,800 -1,680 Descending FAA TRACON SMA TRACON (SMA)
05:15PM 39.0703 -89.2100 250° West 329 379 16,400 -1,440 Descending FAA TRACON SMA TRACON (SMA)
05:16PM 39.0606 -89.2536 254° West 331 381 15,900 -1,380 Descending FAA TRACON SMA TRACON (SMA)
05:16PM 39.0519 -89.2878 252° West 327 376 15,500 -1,080 Descending FAA TRACON SMA TRACON (SMA)
05:16PM 39.0450 -89.3222 255° West 325 374 15,200 -900 Descending FAA TRACON SMA TRACON (SMA)
05:17PM 39.0339 -89.3633 251° West 318 366 14,900 -480 Descending FAA TRACON SMA TRACON (SMA)
05:17PM 39.0267 -89.3967 254° West 314 361 14,900  Level FAA TRACON SMA TRACON (SMA)
05:17PM 39.0183 -89.4292 252° West 311 358 14,900  Level FAA TRACON SMA TRACON (SMA)
05:18PM 39.0097 -89.4692 255° West 304 350 14,900  Level FAA TRACON SMA TRACON (SMA)
05:18PM 39.0025 -89.5008 254° West 299 344 14,900  Level FAA TRACON SMA TRACON (SMA)
05:18PM 38.9950 -89.5322 253° West 297 342 14,900  Level FAA TRACON SMA TRACON (SMA)
05:19PM 38.9831 -89.5714 249° West 304 350 14,900  Level FAA TRACON SMA TRACON (SMA)
05:19PM 38.9728 -89.6039 248° West 316 364 14,900  Level FAA TRACON SMA TRACON (SMA)
05:19PM 38.9617 -89.6369 247° West 326 375 14,900 -180 Level FAA TRACON SMA TRACON (SMA)
05:20PM 38.9483 -89.6803 248° West 337 388 14,800 -900 Descending FAA TRACON SMA TRACON (SMA)
05:20PM 38.9369 -89.7144 247° West 338 389 14,300 -1,620 Descending FAA TRACON SMA TRACON (SMA)
05:20PM 38.9258 -89.7469 246° West 328 377 13,700 -2,100 Descending FAA TRACON SMA TRACON (SMA)
05:21PM 38.9139 -89.7867 249° West 313 360 12,900 -2,100 Descending FAA TRACON SMA TRACON (SMA)
05:21PM 38.9036 -89.8175 247° West 305 351 12,300 -1,800 Descending FAA TRACON SMA TRACON (SMA)
05:21PM 38.8939 -89.8475 247° West 299 344 11,700 -2,040 Descending FAA TRACON SMA TRACON (SMA)
05:22PM 38.8825 -89.8844 248° West 290 334 11,000 -1,800 Descending FAA TRACON SMA TRACON (SMA)
05:22PM 38.8733 -89.9131 248° West 283 326 10,500 -1,320 Descending FAA TRACON SMA TRACON (SMA)
05:22PM 38.8639 -89.9403 246° West 274 315 10,100 -1,440 Descending FAA TRACON SMA TRACON (SMA)
05:23PM 38.8536 -89.9733 248° West 261 300 9,600 -1,500 Descending FAA TRACON SMA TRACON (SMA)
05:23PM 38.8456 -89.9986 248° West 252 290 9,100 -1,500 Descending FAA TRACON SMA TRACON (SMA)
05:23PM 38.8369 -90.0239 246° West 249 287 8,600 -1,620 Descending FAA TRACON SMA TRACON (SMA)
05:24PM 38.8272 -90.0547 248° West 244 281 8,000 -1,080 Descending FAA TRACON SMA TRACON (SMA)
05:24PM 38.8194 -90.0792 248° West 241 277 7,900 -180 Descending FAA TRACON SMA TRACON (SMA)
05:24PM 38.8114 -90.1044 248° West 245 282 7,900  Level FAA TRACON SMA TRACON (SMA)
05:25PM 38.8017 -90.1364 249° West 250 288 7,900  Level FAA TRACON SMA TRACON (SMA)
05:25PM 38.8056 -90.1700 278° West 260 299 7,900  Level FAA TRACON SMA TRACON (SMA)
05:25PM 38.8131 -90.1889 297° West 257 296 7,900  Level FAA TRACON SMA TRACON (SMA)
05:26PM 38.8250 -90.2200 296° West 253 291 7,900  Level FAA TRACON SMA TRACON (SMA)
05:26PM 38.8344 -90.2444 296° West 249 287 7,900 -360 Level FAA TRACON SMA TRACON (SMA)
05:26PM 38.8428 -90.2675 295° West 237 273 7,700 -1,200 Descending FAA TRACON SMA TRACON (SMA)
05:27PM 38.8533 -90.2958 296° West 229 264 7,100 -1,560 Descending FAA TRACON SMA TRACON (SMA)
05:27PM 38.8619 -90.3186 296° West 230 265 6,700 -1,200 Descending FAA TRACON SMA TRACON (SMA)
05:27PM 38.8706 -90.3408 296° West 228 262 6,300 -1,320 Descending FAA TRACON SMA TRACON (SMA)
05:28PM 38.8817 -90.3681 298° West 225 259 5,800 -1,440 Descending FAA TRACON SMA TRACON (SMA)
05:28PM 38.8906 -90.3906 297° West 225 259 5,400 -1,380 Descending FAA TRACON SMA TRACON (SMA)
05:28PM 38.9000 -90.4122 299° West 226 260 4,900 -1,620 Descending FAA TRACON SMA TRACON (SMA)
05:29PM 38.9114 -90.4397 298° West 227 261 4,300 -1,740 Descending FAA TRACON SMA TRACON (SMA)
05:29PM 38.9208 -90.4625 298° West 232 267 3,800 -1,380 Descending FAA TRACON SMA TRACON (SMA)
05:29PM 38.9297 -90.4914 292° West 231 266 3,400 -600 Descending FAA TRACON SMA TRACON (SMA)
05:30PM 38.9233 -90.5122 248° West 232 267 3,400  Level FAA TRACON SMA TRACON (SMA)
05:30PM 38.9089 -90.5247 214° Southwest 215 247 3,400  Level FAA TRACON SMA TRACON (SMA)
05:30PM 38.8897 -90.5400 212° Southwest 208 239 3,400  Level FAA TRACON SMA TRACON (SMA)
05:31PM 38.8744 -90.5369 171° South 206 237 3,400  Level FAA TRACON SMA TRACON (SMA)
05:31PM 38.8606 -90.5239 144° Southeast 201 231 3,400  Level FAA TRACON SMA TRACON (SMA)
05:31PM 38.8431 -90.5081 145° Southeast 200 230 3,400  Level FAA TRACON SMA TRACON (SMA)
05:32PM 38.8325 -90.4922 131° Southeast 193 222 3,400 -300 Level FAA TRACON SMA TRACON (SMA)
05:32PM 38.8242 -90.4758 123° Southeast 182 209 3,200 -600 Descending FAA TRACON SMA TRACON (SMA)